createdAt,value
2023-03-15T00:02:16.363Z,5.18
2023-03-15T00:04:47.303Z,10.90
2023-03-15T00:07:16.309Z,4.90
2023-03-15T00:09:45.709Z,12.93
2023-03-15T00:12:19.291Z,15.95
2023-03-15T00:15:00.319Z,17.20
2023-03-15T00:17:48.323Z,12.70
2023-03-15T00:20:19.910Z,15.65
2023-03-15T00:23:15.844Z,13.82
2023-03-15T00:25:48.996Z,9.80
2023-03-15T00:28:18.879Z,13.30
2023-03-15T00:30:50.689Z,15.65
2023-03-15T00:33:28.736Z,13.55
2023-03-15T00:35:57.195Z,16.10
2023-03-15T00:38:27.380Z,9.13
2023-03-15T00:40:56.201Z,9.90
2023-03-15T00:43:26.726Z,11.57
2023-03-15T00:45:59.326Z,8.77
2023-03-15T00:48:27.912Z,10.88
2023-03-15T00:51:05.936Z,10.75
2023-03-15T00:53:34.766Z,11.57
2023-03-15T00:56:07.584Z,5.07
2023-03-15T01:01:14.397Z,5.10
2023-03-15T01:03:53.220Z,6.43
2023-03-15T01:06:25.659Z,6.35
2023-03-15T01:09:01.736Z,7.78
2023-03-15T01:11:32.109Z,10.10
2023-03-15T01:14:03.571Z,11.18
2023-03-15T01:16:37.574Z,11.95
2023-03-15T01:19:13.212Z,12.90
2023-03-15T01:21:42.682Z,13.32
2023-03-15T01:24:14.087Z,9.02
2023-03-15T01:26:43.648Z,11.73
2023-03-15T01:29:13.599Z,9.27
2023-03-15T01:31:42.484Z,8.13
2023-03-15T01:34:16.708Z,7.90
2023-03-15T01:36:51.059Z,8.18
2023-03-15T01:39:25.779Z,6.18
2023-03-15T01:41:56.701Z,8.23
2023-03-15T01:44:46.302Z,7.65
2023-03-15T01:47:15.204Z,14.75
2023-03-15T01:49:46.804Z,11.63
2023-03-15T01:52:19.020Z,10.70
2023-03-15T01:55:03.811Z,9.27
2023-03-15T01:57:56.020Z,14.25
2023-03-15T02:00:26.034Z,10.40
2023-03-15T02:03:19.788Z,11.52
2023-03-15T02:05:54.725Z,8.68
2023-03-15T02:08:44.651Z,8.57
2023-03-15T02:11:14.572Z,9.93
2023-03-15T02:13:45.980Z,10.05
2023-03-15T02:16:17.692Z,10.10
2023-03-15T02:18:53.799Z,14.98
2023-03-15T02:21:43.467Z,13.82
2023-03-15T02:24:21.420Z,15.30
2023-03-15T02:26:52.944Z,15.48
2023-03-15T02:29:21.194Z,17.48
2023-03-15T02:31:50.466Z,19.45
2023-03-15T02:34:27.881Z,12.35
2023-03-15T02:36:57.111Z,11.80
2023-03-15T02:39:39.484Z,13.80
2023-03-15T02:42:19.316Z,19.08
2023-03-15T02:44:59.057Z,13.73
2023-03-15T02:47:35.398Z,23.95
2023-03-15T02:50:07.675Z,22.58
2023-03-15T02:52:37.520Z,18.98
2023-03-15T02:55:08.200Z,21.98
2023-03-15T02:57:52.963Z,19.52
2023-03-15T03:00:24.372Z,20.52
2023-03-15T03:03:11.987Z,30.67
2023-03-15T03:05:44.315Z,21.88
2023-03-15T03:08:18.284Z,25.63
2023-03-15T03:10:47.325Z,26.92
2023-03-15T03:13:15.859Z,24.92
2023-03-15T03:15:50.138Z,24.95
2023-03-15T03:18:19.768Z,28.33
2023-03-15T03:23:30.004Z,24.52
2023-03-15T03:25:59.772Z,26.10
2023-03-15T03:28:29.847Z,21.75
2023-03-15T03:31:01.954Z,16.15
2023-03-15T03:33:45.098Z,14.70
2023-03-15T03:36:14.507Z,18.10
2023-03-15T03:39:02.671Z,13.60
2023-03-15T03:41:49.927Z,19.85
2023-03-15T03:44:19.427Z,14.95
2023-03-15T03:46:52.326Z,18.33
2023-03-15T03:49:27.455Z,11.43
2023-03-15T03:52:01.480Z,11.55
2023-03-15T03:54:35.191Z,12.65
2023-03-15T03:57:05.875Z,11.35
2023-03-15T03:59:38.228Z,15.07
2023-03-15T04:02:10.691Z,14.07
2023-03-15T04:04:50.239Z,13.52
2023-03-15T04:07:23.305Z,12.98
2023-03-15T04:09:52.097Z,10.63
2023-03-15T04:12:23.968Z,10.90
2023-03-15T04:14:56.585Z,12.10
2023-03-15T04:19:59.794Z,13.10
2023-03-15T04:22:34.732Z,13.52
2023-03-15T04:25:26.635Z,13.25
2023-03-15T04:28:14.770Z,14.75
2023-03-15T04:30:44.030Z,13.73
2023-03-15T04:33:48.438Z,14.43
2023-03-15T04:36:36.858Z,13.82
2023-03-15T04:39:31.715Z,17.08
2023-03-15T04:42:21.878Z,16.90
2023-03-15T04:45:07.345Z,20.95
2023-03-15T04:47:54.714Z,19.58
2023-03-15T04:50:48.736Z,16.35
2023-03-15T04:53:41.147Z,18.23
2023-03-15T04:56:33.717Z,18.58
2023-03-15T04:59:12.747Z,16.77
2023-03-15T05:02:09.741Z,18.15
2023-03-15T05:05:12.035Z,17.63
2023-03-15T05:08:02.129Z,19.27
2023-03-15T05:10:51.827Z,23.35
2023-03-15T05:13:50.471Z,18.67
2023-03-15T05:16:38.150Z,22.70
2023-03-15T05:19:35.009Z,18.38
2023-03-15T05:22:04.423Z,20.88
2023-03-15T05:25:11.038Z,23.70
2023-03-15T05:27:59.318Z,25.98
2023-03-15T05:30:47.398Z,20.58
2023-03-15T05:33:58.236Z,20.90
2023-03-15T05:36:58.697Z,22.67
2023-03-15T05:39:55.487Z,23.38
2023-03-15T05:42:45.836Z,23.75
2023-03-15T05:45:33.011Z,31.13
2023-03-15T05:48:23.778Z,26.63
2023-03-15T05:54:14.510Z,25.63
2023-03-15T05:57:08.028Z,25.23
2023-03-15T06:00:10.362Z,31.85
2023-03-15T06:03:03.864Z,23.80
2023-03-15T06:05:51.347Z,27.50
2023-03-15T06:08:31.001Z,26.42
2023-03-15T06:10:59.988Z,24.38
2023-03-15T06:13:31.588Z,25.75
2023-03-15T06:16:18.835Z,29.63
2023-03-15T06:18:54.865Z,27.45
2023-03-15T06:21:28.154Z,31.17
2023-03-15T06:24:00.556Z,29.77
2023-03-15T06:26:31.132Z,29.80
2023-03-15T06:29:07.174Z,35.55
2023-03-15T06:31:36.290Z,28.73
2023-03-15T06:34:09.833Z,33.67
2023-03-15T06:36:39.425Z,33.42
2023-03-15T06:39:11.306Z,30.92
2023-03-15T06:41:42.508Z,29.33
2023-03-15T06:44:17.497Z,32.92
2023-03-15T06:46:47.752Z,36.60
2023-03-15T06:49:16.485Z,31.77
2023-03-15T06:51:45.889Z,29.27
2023-03-15T06:54:14.463Z,32.17
2023-03-15T06:56:49.594Z,30.70
2023-03-15T06:59:18.714Z,29.63
2023-03-15T07:01:48.878Z,32.90
2023-03-15T07:04:17.268Z,32.75
2023-03-15T07:06:53.924Z,35.00
2023-03-15T07:09:22.535Z,35.72
2023-03-15T07:11:52.931Z,39.25
2023-03-15T07:14:22.369Z,32.80
2023-03-15T07:16:51.340Z,38.97
2023-03-15T07:19:22.851Z,35.25
2023-03-15T07:21:53.927Z,31.38
2023-03-15T07:24:24.826Z,33.72
2023-03-15T07:26:56.602Z,31.58
2023-03-15T07:29:28.254Z,39.45
2023-03-15T07:31:57.933Z,34.47
2023-03-15T07:34:30.714Z,40.97
2023-03-15T07:36:59.990Z,35.63
2023-03-15T07:39:32.488Z,33.40
2023-03-15T07:42:07.853Z,30.55
2023-03-15T07:44:42.301Z,39.75
2023-03-15T07:47:11.053Z,45.67
2023-03-15T07:49:42.062Z,42.80
2023-03-15T07:52:11.686Z,41.90
2023-03-15T07:54:44.784Z,38.03
2023-03-15T07:57:14.603Z,41.70
2023-03-15T07:59:43.127Z,39.83
2023-03-15T08:02:15.692Z,40.55
2023-03-15T08:04:46.900Z,38.53
2023-03-15T08:07:16.853Z,39.72
2023-03-15T08:09:46.451Z,32.05
2023-03-15T08:12:17.001Z,34.25
2023-03-15T08:14:46.206Z,34.15
2023-03-15T08:17:16.283Z,34.75
2023-03-15T08:19:44.949Z,38.05
2023-03-15T08:22:14.635Z,31.85
2023-03-15T08:24:45.691Z,38.50
2023-03-15T08:27:14.152Z,39.45
2023-03-15T08:29:45.020Z,54.17
2023-03-15T08:32:13.709Z,47.65
2023-03-15T08:34:42.316Z,48.13
2023-03-15T08:37:11.904Z,59.38
2023-03-15T08:39:40.817Z,45.10
2023-03-15T08:42:09.212Z,43.58
2023-03-15T08:44:38.464Z,44.13
2023-03-15T08:47:06.902Z,52.65
2023-03-15T08:49:35.309Z,44.25
2023-03-15T08:52:03.805Z,31.77
2023-03-15T08:54:32.902Z,28.27
2023-03-15T08:57:01.499Z,29.58
2023-03-15T08:59:32.859Z,27.02
2023-03-15T09:02:04.939Z,29.95
2023-03-15T09:04:35.966Z,23.95
2023-03-15T09:07:07.179Z,24.33
2023-03-15T09:09:35.719Z,25.13
2023-03-15T09:12:04.146Z,21.27
2023-03-15T09:14:37.040Z,22.30
2023-03-15T09:19:39.654Z,21.42
2023-03-15T09:22:17.021Z,20.60
2023-03-15T09:24:52.661Z,21.30
2023-03-15T09:27:24.028Z,17.48
2023-03-15T09:29:52.363Z,32.22
2023-03-15T09:32:22.383Z,25.38
2023-03-15T09:34:51.236Z,24.25
2023-03-15T09:37:22.044Z,26.80
2023-03-15T09:39:54.452Z,36.63
2023-03-15T09:42:26.416Z,37.45
2023-03-15T09:45:03.232Z,24.10
2023-03-15T09:47:33.754Z,29.17
2023-03-15T09:50:08.384Z,24.95
2023-03-15T09:52:43.782Z,28.77
2023-03-15T09:55:24.980Z,29.38
2023-03-15T09:57:53.231Z,21.98
2023-03-15T10:00:24.753Z,23.15
2023-03-15T10:03:16.964Z,23.40
2023-03-15T10:05:47.327Z,14.02
2023-03-15T10:08:17.631Z,31.40
2023-03-15T10:11:06.331Z,31.92
2023-03-15T10:13:43.400Z,21.95
2023-03-15T10:16:17.959Z,27.33
2023-03-15T10:18:55.275Z,19.42
2023-03-15T10:21:32.860Z,20.05
2023-03-15T10:24:05.633Z,19.95
2023-03-15T10:26:39.147Z,25.77
2023-03-15T10:29:13.474Z,26.30
2023-03-15T10:31:44.886Z,20.50
2023-03-15T10:34:14.302Z,20.52
2023-03-15T10:36:46.322Z,18.65
2023-03-15T10:39:14.847Z,19.42
2023-03-15T10:41:44.633Z,13.07
2023-03-15T10:44:27.671Z,7.80
2023-03-15T10:47:22.075Z,9.73
2023-03-15T10:49:57.357Z,12.50
2023-03-15T10:54:58.694Z,12.18
2023-03-15T10:57:36.140Z,10.27
2023-03-15T11:00:33.818Z,8.20
2023-03-15T11:03:19.514Z,8.48
2023-03-15T11:05:52.166Z,14.98
2023-03-15T11:08:24.608Z,6.85
2023-03-15T11:11:00.395Z,12.35
2023-03-15T11:13:30.939Z,15.07
2023-03-15T11:16:03.999Z,6.00
2023-03-15T11:18:44.261Z,13.50
2023-03-15T11:21:15.165Z,10.98
2023-03-15T11:23:48.730Z,8.63
2023-03-15T11:26:32.181Z,11.85
2023-03-15T11:29:06.176Z,5.28
2023-03-15T11:31:37.418Z,9.75
2023-03-15T11:34:12.862Z,5.13
2023-03-15T11:36:49.077Z,8.23
2023-03-15T11:39:28.258Z,8.02
2023-03-15T11:41:58.503Z,10.32
2023-03-15T11:44:27.628Z,9.45
2023-03-15T11:47:00.244Z,6.15
2023-03-15T11:49:47.011Z,8.70
2023-03-15T11:52:17.177Z,5.18
2023-03-15T11:54:50.974Z,8.43
2023-03-15T11:57:30.570Z,11.25
2023-03-15T12:00:15.897Z,6.45
2023-03-15T12:02:52.388Z,3.42
2023-03-15T12:05:39.599Z,5.90
2023-03-15T12:08:39.924Z,3.45
2023-03-15T12:11:15.048Z,7.00
2023-03-15T12:13:52.177Z,6.75
2023-03-15T12:16:25.099Z,7.35
2023-03-15T12:18:54.527Z,3.70
2023-03-15T12:21:33.521Z,7.43
2023-03-15T12:24:05.242Z,1.98
2023-03-15T12:26:39.371Z,3.13
2023-03-15T12:29:07.847Z,4.75
2023-03-15T12:31:57.482Z,3.33
2023-03-15T12:34:28.259Z,4.43
2023-03-15T12:36:59.201Z,2.28
2023-03-15T12:39:41.855Z,5.65
2023-03-15T12:42:36.393Z,5.38
2023-03-15T12:45:17.338Z,8.32
2023-03-15T12:47:52.757Z,3.58
2023-03-15T12:50:39.191Z,3.50
2023-03-15T12:53:21.717Z,6.47
2023-03-15T12:55:54.074Z,4.30
2023-03-15T12:58:33.219Z,4.97
2023-03-15T13:01:03.322Z,4.40
2023-03-15T13:03:34.725Z,4.35
2023-03-15T13:06:10.394Z,6.53
2023-03-15T13:08:47.236Z,6.50
2023-03-15T13:11:27.256Z,7.22
2023-03-15T13:14:21.628Z,5.50
2023-03-15T13:19:20.073Z,2.80
2023-03-15T13:21:59.506Z,6.93
2023-03-15T13:24:31.960Z,5.63
2023-03-15T13:27:14.196Z,9.52
2023-03-15T13:29:46.724Z,8.25
2023-03-15T13:32:18.976Z,4.47
2023-03-15T13:34:48.436Z,4.72
2023-03-15T13:37:18.802Z,2.72
2023-03-15T13:39:54.813Z,2.33
2023-03-15T13:42:25.736Z,1.35
2023-03-15T13:45:09.934Z,2.97
2023-03-15T13:47:47.919Z,6.65
2023-03-15T13:50:17.637Z,1.50
2023-03-15T13:52:49.394Z,2.72
2023-03-15T13:55:23.400Z,2.55
2023-03-15T13:57:55.227Z,4.45
2023-03-15T14:00:27.292Z,3.22
2023-03-15T14:03:14.775Z,5.60
2023-03-15T14:05:45.821Z,5.97
2023-03-15T14:08:24.370Z,1.67
2023-03-15T14:11:05.050Z,4.43
2023-03-15T14:13:37.176Z,9.07
2023-03-15T14:16:15.581Z,2.30
2023-03-15T14:18:46.183Z,4.28
2023-03-15T14:21:19.835Z,3.75
2023-03-15T14:23:50.958Z,3.72
2023-03-15T14:26:19.734Z,3.28
2023-03-15T14:28:53.755Z,6.93
2023-03-15T14:31:27.307Z,5.00
2023-03-15T14:34:00.786Z,4.18
2023-03-15T14:36:33.236Z,9.93
2023-03-15T14:39:01.975Z,1.30
2023-03-15T14:41:33.878Z,2.55
2023-03-15T14:44:03.420Z,5.22
2023-03-15T14:46:32.939Z,4.80
2023-03-15T14:49:04.344Z,6.43
2023-03-15T14:51:34.264Z,3.03
2023-03-15T14:54:04.136Z,4.20
2023-03-15T14:56:36.818Z,2.78
2023-03-15T14:59:12.071Z,2.35
2023-03-15T15:01:46.939Z,7.07
2023-03-15T15:04:19.953Z,3.85
2023-03-15T15:06:52.617Z,3.60
2023-03-15T15:09:24.766Z,2.03
2023-03-15T15:11:57.970Z,5.82
2023-03-15T15:14:32.192Z,2.30
2023-03-15T15:17:01.297Z,5.47
2023-03-15T15:19:31.264Z,1.45
2023-03-15T15:22:00.261Z,2.28
2023-03-15T15:24:32.246Z,2.65
2023-03-15T15:27:00.869Z,2.58
2023-03-15T15:29:32.222Z,2.17
2023-03-15T15:32:00.798Z,5.75
2023-03-15T15:34:30.247Z,4.32
2023-03-15T15:36:58.934Z,1.10
2023-03-15T15:39:29.587Z,2.30
2023-03-15T15:41:58.541Z,2.35
2023-03-15T15:44:27.714Z,5.57
2023-03-15T15:46:57.162Z,1.10
2023-03-15T15:49:26.342Z,1.33
2023-03-15T15:51:55.979Z,2.70
2023-03-15T15:54:30.497Z,3.05
2023-03-15T15:59:31.952Z,5.28
2023-03-15T16:02:03.253Z,1.77
2023-03-15T16:04:33.524Z,3.50
2023-03-15T16:07:03.615Z,0.63
2023-03-15T16:09:35.781Z,2.33
2023-03-15T16:12:13.246Z,4.47
2023-03-15T16:14:42.059Z,3.03
2023-03-15T16:17:22.866Z,0.65
2023-03-15T16:19:53.446Z,2.97
2023-03-15T16:22:23.075Z,2.60
2023-03-15T16:24:55.852Z,1.75
2023-03-15T16:27:27.114Z,7.07
2023-03-15T16:29:56.226Z,1.67
2023-03-15T16:32:43.071Z,3.08
2023-03-15T16:35:16.167Z,2.85
2023-03-15T16:37:47.435Z,5.00
2023-03-15T16:40:23.087Z,6.35
2023-03-15T16:42:52.169Z,7.22
2023-03-15T16:45:21.242Z,9.48
2023-03-15T16:47:49.743Z,6.55
2023-03-15T16:50:18.331Z,2.88
2023-03-15T16:52:48.031Z,1.90
2023-03-15T16:55:18.692Z,1.75
2023-03-15T16:57:46.968Z,1.73
2023-03-15T17:00:17.144Z,3.72
2023-03-15T17:03:05.430Z,1.05
2023-03-15T17:05:38.767Z,1.40
2023-03-15T17:08:11.413Z,1.08
2023-03-15T17:10:43.440Z,4.13
2023-03-15T17:13:14.204Z,2.30
2023-03-15T17:15:44.948Z,3.08
2023-03-15T17:18:20.073Z,1.35
2023-03-15T17:21:04.222Z,7.43
2023-03-15T17:23:36.369Z,1.30
2023-03-15T17:26:05.290Z,0.95
2023-03-15T17:28:39.525Z,3.20
2023-03-15T17:31:31.078Z,5.57
2023-03-15T17:34:01.096Z,2.10
2023-03-15T17:36:37.507Z,2.97
2023-03-15T17:39:06.969Z,36.97
2023-03-15T17:41:42.666Z,7.70
2023-03-15T17:44:11.969Z,4.07
2023-03-15T17:46:43.063Z,3.08
2023-03-15T17:49:14.423Z,4.88
2023-03-15T17:51:47.903Z,4.93
2023-03-15T17:54:19.480Z,2.22
2023-03-15T17:56:49.422Z,1.70
2023-03-15T17:59:20.664Z,2.22
2023-03-15T18:01:55.217Z,2.25
2023-03-15T18:04:23.878Z,3.90
2023-03-15T18:06:55.379Z,4.10
2023-03-15T18:09:26.400Z,5.65
2023-03-15T18:11:56.253Z,2.78
2023-03-15T18:14:25.431Z,1.65
2023-03-15T18:16:55.122Z,8.70
2023-03-15T18:19:27.086Z,4.38
2023-03-15T18:21:58.111Z,2.72
2023-03-15T18:24:28.966Z,7.70
2023-03-15T18:27:00.033Z,6.63
2023-03-15T18:29:29.116Z,11.05
2023-03-15T18:31:57.545Z,6.47
2023-03-15T18:34:28.528Z,7.07
2023-03-15T18:37:00.162Z,2.72
2023-03-15T18:39:32.070Z,11.95
2023-03-15T18:42:00.989Z,4.00
2023-03-15T18:44:33.096Z,3.47
2023-03-15T18:47:04.736Z,8.18
2023-03-15T18:49:34.700Z,7.45
2023-03-15T18:52:05.000Z,2.38
2023-03-15T18:54:34.272Z,3.95
2023-03-15T18:57:02.976Z,3.53
2023-03-15T18:59:35.407Z,2.17
2023-03-15T19:02:04.823Z,5.47
2023-03-15T19:04:35.697Z,2.75
2023-03-15T19:07:04.196Z,1.88
2023-03-15T19:09:32.626Z,13.65
2023-03-15T19:12:03.124Z,6.35
2023-03-15T19:14:36.102Z,1.40
2023-03-15T19:17:08.790Z,1.73
2023-03-15T19:19:37.773Z,4.82
2023-03-15T19:22:12.168Z,5.63
2023-03-15T19:24:40.659Z,1.63
2023-03-15T19:27:10.032Z,4.47
2023-03-15T19:29:39.053Z,5.20
2023-03-15T19:32:10.966Z,2.03
2023-03-15T19:34:41.551Z,4.70
2023-03-15T19:37:10.302Z,2.00
2023-03-15T19:39:38.996Z,2.78
2023-03-15T19:42:08.243Z,7.35
2023-03-15T19:44:37.869Z,4.25
2023-03-15T19:47:09.091Z,5.10
2023-03-15T19:49:41.212Z,6.32
2023-03-15T19:52:14.470Z,7.80
2023-03-15T19:54:44.480Z,6.10
2023-03-15T19:57:13.524Z,8.48
2023-03-15T19:59:42.673Z,5.45
2023-03-15T20:02:11.507Z,5.25
2023-03-15T20:04:41.030Z,7.65
2023-03-15T20:07:13.856Z,6.35
2023-03-15T20:12:16.189Z,6.53
2023-03-15T20:14:44.701Z,6.95
2023-03-15T20:17:13.394Z,8.95
2023-03-15T20:19:41.965Z,6.35
2023-03-15T20:22:10.941Z,6.10
2023-03-15T20:24:45.250Z,5.72
2023-03-15T20:27:13.705Z,5.10
2023-03-15T20:29:43.282Z,9.18
2023-03-15T20:32:12.061Z,7.68
2023-03-15T20:34:42.671Z,3.53
2023-03-15T20:37:13.541Z,6.28
2023-03-15T20:39:41.850Z,5.50
2023-03-15T20:42:10.661Z,4.03
2023-03-15T20:44:41.540Z,4.72
2023-03-15T20:47:10.243Z,4.93
2023-03-15T20:49:39.471Z,7.50
2023-03-15T20:52:08.080Z,5.28
2023-03-15T20:54:39.608Z,3.42
2023-03-15T20:57:11.149Z,7.25
2023-03-15T20:59:39.733Z,6.38
2023-03-15T21:02:11.049Z,7.45
2023-03-15T21:04:39.340Z,2.85
2023-03-15T21:07:07.960Z,7.93
2023-03-15T21:09:36.689Z,7.20
2023-03-15T21:12:05.062Z,3.55
2023-03-15T21:14:36.444Z,4.18
2023-03-15T21:17:07.893Z,8.48
2023-03-15T21:19:38.698Z,6.80
2023-03-15T21:22:07.728Z,7.68
2023-03-15T21:24:52.901Z,4.30
2023-03-15T21:27:26.075Z,6.57
2023-03-15T21:29:56.256Z,5.72
2023-03-15T21:32:25.168Z,5.13
2023-03-15T21:34:56.020Z,4.03
2023-03-15T21:37:24.586Z,5.93
2023-03-15T21:39:53.993Z,7.25
2023-03-15T21:42:22.387Z,8.07
2023-03-15T21:44:53.567Z,10.40
2023-03-15T21:47:25.697Z,6.38
2023-03-15T21:49:56.300Z,3.90
2023-03-15T21:52:26.229Z,8.00
2023-03-15T21:54:54.913Z,7.47
2023-03-15T21:57:25.850Z,3.78
2023-03-15T21:59:54.452Z,10.23
2023-03-15T22:02:22.923Z,3.55
2023-03-15T22:04:54.131Z,4.80
2023-03-15T22:07:23.179Z,7.10
2023-03-15T22:09:53.243Z,3.97
2023-03-15T22:12:21.887Z,9.10
2023-03-15T22:15:04.695Z,2.30
2023-03-15T22:17:37.444Z,3.33
2023-03-15T22:20:09.099Z,3.22
2023-03-15T22:22:42.057Z,5.47
2023-03-15T22:25:13.824Z,4.72
2023-03-15T22:27:42.788Z,6.47
2023-03-15T22:30:17.566Z,6.43
2023-03-15T22:32:53.663Z,6.30
2023-03-15T22:35:22.732Z,4.35
2023-03-15T22:37:56.287Z,5.95
2023-03-15T22:40:26.059Z,6.80
2023-03-15T22:45:31.268Z,4.30
2023-03-15T22:48:03.354Z,10.32
2023-03-15T22:50:33.268Z,5.93
2023-03-15T22:53:02.586Z,8.60
2023-03-15T22:55:34.081Z,10.55
2023-03-15T22:58:02.363Z,5.00
2023-03-15T23:00:31.772Z,5.28
2023-03-15T23:03:21.970Z,8.95
2023-03-15T23:05:50.652Z,5.38
2023-03-15T23:08:24.253Z,3.58
2023-03-15T23:10:53.123Z,6.40
2023-03-15T23:13:23.989Z,7.13
2023-03-15T23:15:52.608Z,7.70
2023-03-15T23:18:21.954Z,3.72
2023-03-15T23:20:52.105Z,3.40
2023-03-15T23:23:21.779Z,3.53
2023-03-15T23:25:53.957Z,7.00
2023-03-15T23:28:24.366Z,3.67
2023-03-15T23:30:55.166Z,6.88
2023-03-15T23:33:30.081Z,6.63
2023-03-15T23:35:58.600Z,2.42
2023-03-15T23:38:29.815Z,3.95
2023-03-15T23:40:59.031Z,5.97
2023-03-15T23:43:31.674Z,6.65
2023-03-15T23:46:04.812Z,2.45
2023-03-15T23:48:36.136Z,4.03
2023-03-15T23:51:05.900Z,6.38
2023-03-15T23:53:37.499Z,6.90
2023-03-15T23:56:05.913Z,4.40
2023-03-15T23:58:34.302Z,2.60
